sensor_id;sensor_type;location;lat;lon;timestamp;P1;durP1;ratioP1;P2;durP2;ratioP2
65368;SDS011;51970;53.484;49.488;2023-04-03T00:01:47;36.40;;;18.00;;
65368;SDS011;51970;53.484;49.488;2023-04-03T00:04:14;30.52;;;16.08;;
65368;SDS011;51970;53.484;49.488;2023-04-03T00:06:41;32.72;;;12.98;;
65368;SDS011;51970;53.484;49.488;2023-04-03T00:09:07;48.33;;;17.20;;
65368;SDS011;51970;53.484;49.488;2023-04-03T00:11:33;42.63;;;15.18;;
65368;SDS011;51970;53.484;49.488;2023-04-03T00:13:59;26.52;;;12.60;;
65368;SDS011;51970;53.484;49.488;2023-04-03T00:16:26;29.65;;;14.10;;
65368;SDS011;51970;53.484;49.488;2023-04-03T00:18:52;23.20;;;11.95;;
65368;SDS011;51970;53.484;49.488;2023-04-03T00:21:18;21.27;;;9.18;;
65368;SDS011;51970;53.484;49.488;2023-04-03T00:23:45;21.90;;;10.70;;
65368;SDS011;51970;53.484;49.488;2023-04-03T00:26:11;24.55;;;12.10;;
65368;SDS011;51970;53.484;49.488;2023-04-03T00:28:38;31.58;;;10.30;;
65368;SDS011;51970;53.484;49.488;2023-04-03T00:31:04;25.83;;;9.32;;
65368;SDS011;51970;53.484;49.488;2023-04-03T00:33:30;28.38;;;11.40;;
65368;SDS011;51970;53.484;49.488;2023-04-03T00:35:57;30.48;;;10.93;;
65368;SDS011;51970;53.484;49.488;2023-04-03T00:38:23;23.80;;;10.30;;
65368;SDS011;51970;53.484;49.488;2023-04-03T00:40:50;22.92;;;9.88;;
65368;SDS011;51970;53.484;49.488;2023-04-03T00:43:21;26.77;;;11.43;;
65368;SDS011;51970;53.484;49.488;2023-04-03T00:45:50;22.98;;;8.65;;
65368;SDS011;51970;53.484;49.488;2023-04-03T00:48:20;27.55;;;11.80;;
65368;SDS011;51970;53.484;49.488;2023-04-03T00:50:58;16.45;;;9.38;;
65368;SDS011;51970;53.484;49.488;2023-04-03T00:53:27;17.63;;;10.77;;
65368;SDS011;51970;53.484;49.488;2023-04-03T00:56:08;21.33;;;8.65;;
65368;SDS011;51970;53.484;49.488;2023-04-03T00:58:43;11.15;;;6.40;;
65368;SDS011;51970;53.484;49.488;2023-04-03T01:01:23;14.52;;;7.18;;
65368;SDS011;51970;53.484;49.488;2023-04-03T01:03:50;16.40;;;8.15;;
65368;SDS011;51970;53.484;49.488;2023-04-03T01:06:17;15.00;;;7.32;;
65368;SDS011;51970;53.484;49.488;2023-04-03T01:08:47;19.63;;;7.38;;
65368;SDS011;51970;53.484;49.488;2023-04-03T01:11:15;13.88;;;3.28;;
65368;SDS011;51970;53.484;49.488;2023-04-03T01:13:41;12.00;;;3.70;;
65368;SDS011;51970;53.484;49.488;2023-04-03T01:16:07;19.88;;;6.50;;
65368;SDS011;51970;53.484;49.488;2023-04-03T01:18:34;13.80;;;6.28;;
65368;SDS011;51970;53.484;49.488;2023-04-03T01:24:13;63.17;;;17.10;;
65368;SDS011;51970;53.484;49.488;2023-04-03T01:26:44;15.30;;;7.82;;
65368;SDS011;51970;53.484;49.488;2023-04-03T01:29:10;24.58;;;5.68;;
65368;SDS011;51970;53.484;49.488;2023-04-03T01:34:19;16.05;;;7.68;;
65368;SDS011;51970;53.484;49.488;2023-04-03T01:36:46;17.38;;;8.40;;
65368;SDS011;51970;53.484;49.488;2023-04-03T01:39:12;17.80;;;9.48;;
65368;SDS011;51970;53.484;49.488;2023-04-03T01:41:38;19.70;;;7.32;;
65368;SDS011;51970;53.484;49.488;2023-04-03T01:44:04;19.95;;;7.90;;
65368;SDS011;51970;53.484;49.488;2023-04-03T01:46:31;15.90;;;7.55;;
65368;SDS011;51970;53.484;49.488;2023-04-03T01:48:57;15.90;;;7.13;;
65368;SDS011;51970;53.484;49.488;2023-04-03T01:51:24;14.38;;;4.95;;
65368;SDS011;51970;53.484;49.488;2023-04-03T01:53:50;15.77;;;6.55;;
65368;SDS011;51970;53.484;49.488;2023-04-03T01:56:17;15.00;;;6.43;;
65368;SDS011;51970;53.484;49.488;2023-04-03T01:58:43;17.85;;;6.18;;
65368;SDS011;51970;53.484;49.488;2023-04-03T02:01:09;12.60;;;6.35;;
65368;SDS011;51970;53.484;49.488;2023-04-03T02:03:35;12.18;;;6.88;;
65368;SDS011;51970;53.484;49.488;2023-04-03T02:06:02;10.10;;;6.18;;
65368;SDS011;51970;53.484;49.488;2023-04-03T02:08:28;14.10;;;5.70;;
65368;SDS011;51970;53.484;49.488;2023-04-03T02:10:54;15.80;;;3.17;;
65368;SDS011;51970;53.484;49.488;2023-04-03T02:13:21;14.35;;;6.75;;
65368;SDS011;51970;53.484;49.488;2023-04-03T02:15:47;8.98;;;5.93;;
65368;SDS011;51970;53.484;49.488;2023-04-03T02:18:13;10.43;;;4.97;;
65368;SDS011;51970;53.484;49.488;2023-04-03T02:20:40;9.73;;;5.20;;
65368;SDS011;51970;53.484;49.488;2023-04-03T02:23:06;8.98;;;6.00;;
65368;SDS011;51970;53.484;49.488;2023-04-03T02:25:33;9.30;;;5.43;;
65368;SDS011;51970;53.484;49.488;2023-04-03T02:27:59;9.05;;;5.13;;
65368;SDS011;51970;53.484;49.488;2023-04-03T02:30:26;10.07;;;6.35;;
65368;SDS011;51970;53.484;49.488;2023-04-03T02:32:53;22.85;;;8.45;;
65368;SDS011;51970;53.484;49.488;2023-04-03T02:35:19;15.00;;;6.57;;
65368;SDS011;51970;53.484;49.488;2023-04-03T02:37:46;12.82;;;6.05;;
65368;SDS011;51970;53.484;49.488;2023-04-03T02:40:12;9.27;;;5.90;;
65368;SDS011;51970;53.484;49.488;2023-04-03T02:42:38;8.05;;;3.10;;
65368;SDS011;51970;53.484;49.488;2023-04-03T02:45:05;9.65;;;4.63;;
65368;SDS011;51970;53.484;49.488;2023-04-03T02:47:31;13.80;;;5.97;;
65368;SDS011;51970;53.484;49.488;2023-04-03T02:49:57;9.40;;;5.60;;
65368;SDS011;51970;53.484;49.488;2023-04-03T02:52:24;14.27;;;5.45;;
65368;SDS011;51970;53.484;49.488;2023-04-03T02:54:51;9.60;;;4.55;;
65368;SDS011;51970;53.484;49.488;2023-04-03T02:57:17;26.73;;;6.47;;
65368;SDS011;51970;53.484;49.488;2023-04-03T02:59:45;17.10;;;5.78;;
65368;SDS011;51970;53.484;49.488;2023-04-03T03:02:12;9.45;;;6.50;;
65368;SDS011;51970;53.484;49.488;2023-04-03T03:04:40;13.70;;;6.68;;
65368;SDS011;51970;53.484;49.488;2023-04-03T03:07:06;17.23;;;3.25;;
65368;SDS011;51970;53.484;49.488;2023-04-03T03:09:33;13.82;;;5.70;;
65368;SDS011;51970;53.484;49.488;2023-04-03T03:12:01;11.02;;;5.90;;
65368;SDS011;51970;53.484;49.488;2023-04-03T03:14:27;11.27;;;4.93;;
65368;SDS011;51970;53.484;49.488;2023-04-03T03:16:53;10.25;;;2.42;;
65368;SDS011;51970;53.484;49.488;2023-04-03T03:19:20;16.42;;;6.20;;
65368;SDS011;51970;53.484;49.488;2023-04-03T03:22:03;21.92;;;6.40;;
65368;SDS011;51970;53.484;49.488;2023-04-03T03:24:32;16.75;;;6.20;;
65368;SDS011;51970;53.484;49.488;2023-04-03T03:26:58;22.95;;;7.47;;
65368;SDS011;51970;53.484;49.488;2023-04-03T03:29:28;29.00;;;7.00;;
65368;SDS011;51970;53.484;49.488;2023-04-03T03:32:04;36.40;;;4.28;;
65368;SDS011;51970;53.484;49.488;2023-04-03T03:34:43;17.25;;;7.68;;
65368;SDS011;51970;53.484;49.488;2023-04-03T03:37:11;14.32;;;6.22;;
65368;SDS011;51970;53.484;49.488;2023-04-03T03:39:39;11.63;;;6.78;;
65368;SDS011;51970;53.484;49.488;2023-04-03T03:42:28;26.10;;;6.63;;
65368;SDS011;51970;53.484;49.488;2023-04-03T03:45:08;18.40;;;7.13;;
65368;SDS011;51970;53.484;49.488;2023-04-03T03:47:35;24.40;;;3.97;;
65368;SDS011;51970;53.484;49.488;2023-04-03T03:50:03;17.17;;;4.05;;
65368;SDS011;51970;53.484;49.488;2023-04-03T03:52:31;24.75;;;5.32;;
65368;SDS011;51970;53.484;49.488;2023-04-03T03:54:58;17.95;;;6.72;;
65368;SDS011;51970;53.484;49.488;2023-04-03T03:57:26;14.85;;;3.67;;
65368;SDS011;51970;53.484;49.488;2023-04-03T03:59:54;14.25;;;6.95;;
65368;SDS011;51970;53.484;49.488;2023-04-03T04:02:22;16.60;;;5.20;;
65368;SDS011;51970;53.484;49.488;2023-04-03T04:04:49;15.70;;;5.35;;
65368;SDS011;51970;53.484;49.488;2023-04-03T04:07:16;25.75;;;7.50;;
65368;SDS011;51970;53.484;49.488;2023-04-03T04:09:42;18.38;;;6.05;;
65368;SDS011;51970;53.484;49.488;2023-04-03T04:12:09;9.80;;;4.72;;
65368;SDS011;51970;53.484;49.488;2023-04-03T04:14:35;13.20;;;6.95;;
65368;SDS011;51970;53.484;49.488;2023-04-03T04:17:04;22.80;;;3.22;;
65368;SDS011;51970;53.484;49.488;2023-04-03T04:19:31;25.02;;;6.63;;
65368;SDS011;51970;53.484;49.488;2023-04-03T04:21:58;19.02;;;7.28;;
65368;SDS011;51970;53.484;49.488;2023-04-03T04:24:27;15.85;;;5.97;;
65368;SDS011;51970;53.484;49.488;2023-04-03T04:26:55;21.15;;;5.45;;
65368;SDS011;51970;53.484;49.488;2023-04-03T04:29:44;10.32;;;4.53;;
65368;SDS011;51970;53.484;49.488;2023-04-03T04:32:12;7.35;;;4.25;;
65368;SDS011;51970;53.484;49.488;2023-04-03T04:34:44;13.80;;;2.28;;
65368;SDS011;51970;53.484;49.488;2023-04-03T04:37:12;13.18;;;5.93;;
65368;SDS011;51970;53.484;49.488;2023-04-03T04:40:02;11.68;;;6.28;;
65368;SDS011;51970;53.484;49.488;2023-04-03T04:42:31;12.02;;;3.67;;
65368;SDS011;51970;53.484;49.488;2023-04-03T04:45:02;13.70;;;3.50;;
65368;SDS011;51970;53.484;49.488;2023-04-03T04:47:44;10.68;;;5.50;;
65368;SDS011;51970;53.484;49.488;2023-04-03T04:50:17;11.95;;;5.65;;
65368;SDS011;51970;53.484;49.488;2023-04-03T04:53:08;10.10;;;4.65;;
65368;SDS011;51970;53.484;49.488;2023-04-03T04:56:11;9.75;;;2.20;;
65368;SDS011;51970;53.484;49.488;2023-04-03T04:58:42;8.93;;;4.97;;
65368;SDS011;51970;53.484;49.488;2023-04-03T05:01:16;13.88;;;4.78;;
65368;SDS011;51970;53.484;49.488;2023-04-03T05:03:51;15.85;;;5.65;;
65368;SDS011;51970;53.484;49.488;2023-04-03T05:06:21;25.00;;;4.80;;
65368;SDS011;51970;53.484;49.488;2023-04-03T05:09:00;24.27;;;9.15;;
65368;SDS011;51970;53.484;49.488;2023-04-03T05:11:58;10.20;;;4.38;;
65368;SDS011;51970;53.484;49.488;2023-04-03T05:14:56;8.70;;;3.83;;
65368;SDS011;51970;53.484;49.488;2023-04-03T05:17:25;13.75;;;7.35;;
65368;SDS011;51970;53.484;49.488;2023-04-03T05:20:03;11.23;;;2.70;;
65368;SDS011;51970;53.484;49.488;2023-04-03T05:22:44;11.95;;;5.38;;
65368;SDS011;51970;53.484;49.488;2023-04-03T05:28:00;15.18;;;5.10;;
65368;SDS011;51970;53.484;49.488;2023-04-03T05:30:30;15.93;;;6.28;;
65368;SDS011;51970;53.484;49.488;2023-04-03T05:32:59;17.50;;;6.13;;
65368;SDS011;51970;53.484;49.488;2023-04-03T05:35:39;16.52;;;7.22;;
65368;SDS011;51970;53.484;49.488;2023-04-03T05:38:36;13.88;;;6.45;;
65368;SDS011;51970;53.484;49.488;2023-04-03T05:41:06;13.25;;;5.85;;
65368;SDS011;51970;53.484;49.488;2023-04-03T05:43:44;16.92;;;6.60;;
65368;SDS011;51970;53.484;49.488;2023-04-03T05:46:28;19.90;;;7.35;;
65368;SDS011;51970;53.484;49.488;2023-04-03T05:49:23;11.48;;;5.00;;
65368;SDS011;51970;53.484;49.488;2023-04-03T05:52:41;20.48;;;7.05;;
65368;SDS011;51970;53.484;49.488;2023-04-03T05:58:59;15.32;;;6.72;;
65368;SDS011;51970;53.484;49.488;2023-04-03T06:02:17;17.92;;;5.72;;
65368;SDS011;51970;53.484;49.488;2023-04-03T06:05:02;16.85;;;4.32;;
65368;SDS011;51970;53.484;49.488;2023-04-03T06:08:29;21.38;;;6.38;;
65368;SDS011;51970;53.484;49.488;2023-04-03T06:11:02;18.63;;;3.75;;
65368;SDS011;51970;53.484;49.488;2023-04-03T06:13:56;19.30;;;5.28;;
65368;SDS011;51970;53.484;49.488;2023-04-03T06:16:49;8.55;;;2.67;;
65368;SDS011;51970;53.484;49.488;2023-04-03T06:19:38;22.58;;;6.45;;
65368;SDS011;51970;53.484;49.488;2023-04-03T06:22:18;9.30;;;3.90;;
65368;SDS011;51970;53.484;49.488;2023-04-03T06:25:33;12.07;;;4.80;;
65368;SDS011;51970;53.484;49.488;2023-04-03T06:28:26;23.65;;;6.05;;
65368;SDS011;51970;53.484;49.488;2023-04-03T06:31:00;11.25;;;5.88;;
65368;SDS011;51970;53.484;49.488;2023-04-03T06:33:34;21.55;;;3.38;;
65368;SDS011;51970;53.484;49.488;2023-04-03T06:36:24;15.20;;;4.50;;
65368;SDS011;51970;53.484;49.488;2023-04-03T06:39:03;14.63;;;4.18;;
65368;SDS011;51970;53.484;49.488;2023-04-03T06:41:31;13.05;;;3.88;;
65368;SDS011;51970;53.484;49.488;2023-04-03T06:44:03;25.83;;;9.07;;
65368;SDS011;51970;53.484;49.488;2023-04-03T06:46:38;29.58;;;16.58;;
65368;SDS011;51970;53.484;49.488;2023-04-03T06:49:28;13.23;;;6.40;;
65368;SDS011;51970;53.484;49.488;2023-04-03T06:51:58;32.50;;;14.60;;
65368;SDS011;51970;53.484;49.488;2023-04-03T06:54:36;20.92;;;8.68;;
65368;SDS011;51970;53.484;49.488;2023-04-03T06:57:20;17.77;;;8.15;;
65368;SDS011;51970;53.484;49.488;2023-04-03T06:59:59;22.08;;;8.80;;
65368;SDS011;51970;53.484;49.488;2023-04-03T07:02:32;30.23;;;5.72;;
65368;SDS011;51970;53.484;49.488;2023-04-03T07:05:09;20.48;;;11.48;;
65368;SDS011;51970;53.484;49.488;2023-04-03T07:07:58;20.05;;;7.05;;
65368;SDS011;51970;53.484;49.488;2023-04-03T07:10:33;18.25;;;7.07;;
65368;SDS011;51970;53.484;49.488;2023-04-03T07:13:11;23.98;;;9.52;;
65368;SDS011;51970;53.484;49.488;2023-04-03T07:15:58;19.83;;;7.20;;
65368;SDS011;51970;53.484;49.488;2023-04-03T07:18:31;20.00;;;6.30;;
65368;SDS011;51970;53.484;49.488;2023-04-03T07:21:20;18.17;;;6.75;;
65368;SDS011;51970;53.484;49.488;2023-04-03T07:24:32;23.15;;;7.40;;
65368;SDS011;51970;53.484;49.488;2023-04-03T07:27:09;26.40;;;7.15;;
65368;SDS011;51970;53.484;49.488;2023-04-03T07:29:39;20.15;;;6.60;;
65368;SDS011;51970;53.484;49.488;2023-04-03T07:32:33;18.98;;;6.35;;
65368;SDS011;51970;53.484;49.488;2023-04-03T07:35:19;21.02;;;6.38;;
65368;SDS011;51970;53.484;49.488;2023-04-03T07:38:18;19.10;;;6.28;;
65368;SDS011;51970;53.484;49.488;2023-04-03T07:40:57;15.52;;;4.85;;
65368;SDS011;51970;53.484;49.488;2023-04-03T07:43:29;19.38;;;8.40;;
65368;SDS011;51970;53.484;49.488;2023-04-03T07:48:39;18.80;;;4.60;;
65368;SDS011;51970;53.484;49.488;2023-04-03T07:51:45;14.82;;;6.00;;
65368;SDS011;51970;53.484;49.488;2023-04-03T07:54:27;13.00;;;4.00;;
65368;SDS011;51970;53.484;49.488;2023-04-03T07:57:11;30.08;;;5.63;;
65368;SDS011;51970;53.484;49.488;2023-04-03T07:59:46;17.20;;;5.05;;
65368;SDS011;51970;53.484;49.488;2023-04-03T08:02:19;9.27;;;4.93;;
65368;SDS011;51970;53.484;49.488;2023-04-03T08:04:49;12.35;;;5.72;;
65368;SDS011;51970;53.484;49.488;2023-04-03T08:07:26;14.68;;;5.25;;
65368;SDS011;51970;53.484;49.488;2023-04-03T08:09:55;29.42;;;5.40;;
65368;SDS011;51970;53.484;49.488;2023-04-03T08:12:27;22.55;;;5.45;;
65368;SDS011;51970;53.484;49.488;2023-04-03T08:17:55;16.08;;;5.38;;
65368;SDS011;51970;53.484;49.488;2023-04-03T08:20:22;30.95;;;5.07;;
65368;SDS011;51970;53.484;49.488;2023-04-03T08:22:52;18.02;;;5.95;;
65368;SDS011;51970;53.484;49.488;2023-04-03T08:25:18;11.02;;;5.22;;
65368;SDS011;51970;53.484;49.488;2023-04-03T08:27:45;18.92;;;5.38;;
65368;SDS011;51970;53.484;49.488;2023-04-03T08:31:07;17.17;;;4.13;;
65368;SDS011;51970;53.484;49.488;2023-04-03T08:33:44;12.43;;;2.03;;
65368;SDS011;51970;53.484;49.488;2023-04-03T08:36:29;16.75;;;2.53;;
65368;SDS011;51970;53.484;49.488;2023-04-03T08:39:06;18.30;;;5.50;;
65368;SDS011;51970;53.484;49.488;2023-04-03T08:41:43;20.75;;;2.55;;
65368;SDS011;51970;53.484;49.488;2023-04-03T08:44:25;24.85;;;2.10;;
65368;SDS011;51970;53.484;49.488;2023-04-03T08:47:36;29.75;;;5.40;;
65368;SDS011;51970;53.484;49.488;2023-04-03T08:50:20;17.63;;;4.13;;
65368;SDS011;51970;53.484;49.488;2023-04-03T08:52:59;15.30;;;3.58;;
65368;SDS011;51970;53.484;49.488;2023-04-03T08:55:45;21.10;;;6.82;;
65368;SDS011;51970;53.484;49.488;2023-04-03T08:58:47;27.40;;;2.72;;
65368;SDS011;51970;53.484;49.488;2023-04-03T09:01:28;18.75;;;6.28;;
65368;SDS011;51970;53.484;49.488;2023-04-03T09:04:10;18.48;;;3.50;;
65368;SDS011;51970;53.484;49.488;2023-04-03T09:06:45;24.38;;;3.08;;
65368;SDS011;51970;53.484;49.488;2023-04-03T09:12:25;21.25;;;2.38;;
65368;SDS011;51970;53.484;49.488;2023-04-03T09:15:21;14.70;;;2.80;;
65368;SDS011;51970;53.484;49.488;2023-04-03T09:21:08;9.60;;;3.10;;
65368;SDS011;51970;53.484;49.488;2023-04-03T09:24:06;10.07;;;2.92;;
65368;SDS011;51970;53.484;49.488;2023-04-03T09:27:25;23.80;;;3.80;;
65368;SDS011;51970;53.484;49.488;2023-04-03T09:30:42;30.30;;;7.55;;
65368;SDS011;51970;53.484;49.488;2023-04-03T09:33:17;20.63;;;5.40;;
65368;SDS011;51970;53.484;49.488;2023-04-03T09:36:07;15.30;;;3.45;;
65368;SDS011;51970;53.484;49.488;2023-04-03T09:45:18;22.83;;;3.22;;
65368;SDS011;51970;53.484;49.488;2023-04-03T09:48:25;13.30;;;3.05;;
65368;SDS011;51970;53.484;49.488;2023-04-03T09:51:31;13.38;;;2.33;;
65368;SDS011;51970;53.484;49.488;2023-04-03T09:54:53;18.38;;;3.15;;
65368;SDS011;51970;53.484;49.488;2023-04-03T09:57:40;31.45;;;4.35;;
65368;SDS011;51970;53.484;49.488;2023-04-03T10:00:36;23.17;;;4.55;;
65368;SDS011;51970;53.484;49.488;2023-04-03T10:03:25;27.65;;;3.60;;
65368;SDS011;51970;53.484;49.488;2023-04-03T10:05:55;9.55;;;2.60;;
65368;SDS011;51970;53.484;49.488;2023-04-03T10:14:16;19.45;;;4.72;;
65368;SDS011;51970;53.484;49.488;2023-04-03T10:16:57;12.98;;;4.75;;
65368;SDS011;51970;53.484;49.488;2023-04-03T10:22:59;16.52;;;4.15;;
65368;SDS011;51970;53.484;49.488;2023-04-03T10:36:12;28.85;;;5.75;;
65368;SDS011;51970;53.484;49.488;2023-04-03T10:39:26;29.38;;;5.13;;
65368;SDS011;51970;53.484;49.488;2023-04-03T10:46:10;21.38;;;2.88;;
65368;SDS011;51970;53.484;49.488;2023-04-03T10:49:16;11.82;;;4.25;;
65368;SDS011;51970;53.484;49.488;2023-04-03T10:55:38;38.90;;;6.63;;
65368;SDS011;51970;53.484;49.488;2023-04-03T11:01:30;23.00;;;2.70;;
65368;SDS011;51970;53.484;49.488;2023-04-03T11:04:07;27.70;;;4.95;;
65368;SDS011;51970;53.484;49.488;2023-04-03T11:07:02;16.98;;;2.65;;
65368;SDS011;51970;53.484;49.488;2023-04-03T11:10:05;33.63;;;6.28;;
65368;SDS011;51970;53.484;49.488;2023-04-03T11:13:14;21.00;;;4.78;;
65368;SDS011;51970;53.484;49.488;2023-04-03T11:16:15;25.77;;;5.20;;
65368;SDS011;51970;53.484;49.488;2023-04-03T11:25:58;36.72;;;2.42;;
65368;SDS011;51970;53.484;49.488;2023-04-03T11:28:38;22.77;;;2.72;;
65368;SDS011;51970;53.484;49.488;2023-04-03T11:34:50;18.35;;;4.53;;
65368;SDS011;51970;53.484;49.488;2023-04-03T11:37:44;19.85;;;3.38;;
65368;SDS011;51970;53.484;49.488;2023-04-03T11:40:24;28.50;;;5.15;;
65368;SDS011;51970;53.484;49.488;2023-04-03T11:43:29;27.30;;;5.03;;
65368;SDS011;51970;53.484;49.488;2023-04-03T11:46:11;17.05;;;4.22;;
65368;SDS011;51970;53.484;49.488;2023-04-03T12:09:01;30.27;;;2.35;;
65368;SDS011;51970;53.484;49.488;2023-04-03T12:11:50;22.15;;;2.75;;
65368;SDS011;51970;53.484;49.488;2023-04-03T12:14:18;16.27;;;2.97;;
65368;SDS011;51970;53.484;49.488;2023-04-03T12:17:20;15.90;;;2.90;;
65368;SDS011;51970;53.484;49.488;2023-04-03T12:19:57;17.25;;;4.47;;
65368;SDS011;51970;53.484;49.488;2023-04-03T12:22:36;47.17;;;8.13;;
65368;SDS011;51970;53.484;49.488;2023-04-03T12:25:46;20.10;;;5.45;;
65368;SDS011;51970;53.484;49.488;2023-04-03T12:30:45;24.38;;;4.68;;
65368;SDS011;51970;53.484;49.488;2023-04-03T12:33:27;25.27;;;5.78;;
65368;SDS011;51970;53.484;49.488;2023-04-03T12:36:44;22.35;;;2.95;;
65368;SDS011;51970;53.484;49.488;2023-04-03T12:45:20;18.88;;;5.82;;
65368;SDS011;51970;53.484;49.488;2023-04-03T12:48:22;33.92;;;5.45;;
65368;SDS011;51970;53.484;49.488;2023-04-03T12:51:37;17.13;;;2.38;;
65368;SDS011;51970;53.484;49.488;2023-04-03T12:57:25;19.45;;;2.88;;
65368;SDS011;51970;53.484;49.488;2023-04-03T13:00:37;30.52;;;5.90;;
65368;SDS011;51970;53.484;49.488;2023-04-03T13:06:19;13.20;;;2.33;;
65368;SDS011;51970;53.484;49.488;2023-04-03T13:09:23;29.90;;;2.40;;
65368;SDS011;51970;53.484;49.488;2023-04-03T13:12:15;28.77;;;3.10;;
65368;SDS011;51970;53.484;49.488;2023-04-03T13:14:55;17.58;;;2.83;;
65368;SDS011;51970;53.484;49.488;2023-04-03T13:17:39;22.58;;;2.35;;
65368;SDS011;51970;53.484;49.488;2023-04-03T13:20:57;21.42;;;2.83;;
65368;SDS011;51970;53.484;49.488;2023-04-03T13:24:30;23.45;;;2.88;;
65368;SDS011;51970;53.484;49.488;2023-04-03T13:27:35;20.95;;;3.20;;
65368;SDS011;51970;53.484;49.488;2023-04-03T13:34:26;23.65;;;5.63;;
65368;SDS011;51970;53.484;49.488;2023-04-03T13:37:22;23.80;;;2.58;;
65368;SDS011;51970;53.484;49.488;2023-04-03T13:40:13;21.70;;;3.10;;
65368;SDS011;51970;53.484;49.488;2023-04-03T13:43:37;17.30;;;2.80;;
65368;SDS011;51970;53.484;49.488;2023-04-03T13:48:46;16.02;;;2.72;;
65368;SDS011;51970;53.484;49.488;2023-04-03T13:51:56;21.00;;;3.88;;
65368;SDS011;51970;53.484;49.488;2023-04-03T13:55:03;21.05;;;5.45;;
65368;SDS011;51970;53.484;49.488;2023-04-03T13:57:52;22.80;;;2.85;;
65368;SDS011;51970;53.484;49.488;2023-04-03T14:07:09;51.40;;;4.88;;
65368;SDS011;51970;53.484;49.488;2023-04-03T14:10:17;39.92;;;4.57;;
65368;SDS011;51970;53.484;49.488;2023-04-03T14:13:20;33.55;;;5.72;;
65368;SDS011;51970;53.484;49.488;2023-04-03T14:16:26;17.23;;;3.65;;
65368;SDS011;51970;53.484;49.488;2023-04-03T14:18:58;36.13;;;3.63;;
65368;SDS011;51970;53.484;49.488;2023-04-03T14:21:37;22.20;;;5.60;;
65368;SDS011;51970;53.484;49.488;2023-04-03T14:24:50;22.00;;;5.45;;
65368;SDS011;51970;53.484;49.488;2023-04-03T14:27:37;30.80;;;3.75;;
65368;SDS011;51970;53.484;49.488;2023-04-03T14:30:14;32.10;;;5.60;;
65368;SDS011;51970;53.484;49.488;2023-04-03T14:36:12;27.02;;;6.47;;
65368;SDS011;51970;53.484;49.488;2023-04-03T14:38:58;41.08;;;4.32;;
65368;SDS011;51970;53.484;49.488;2023-04-03T14:41:56;30.55;;;3.92;;
65368;SDS011;51970;53.484;49.488;2023-04-03T14:44:27;37.03;;;6.10;;
65368;SDS011;51970;53.484;49.488;2023-04-03T14:47:12;34.13;;;6.35;;
65368;SDS011;51970;53.484;49.488;2023-04-03T14:49:48;41.22;;;4.32;;
65368;SDS011;51970;53.484;49.488;2023-04-03T14:52:20;35.90;;;3.53;;
65368;SDS011;51970;53.484;49.488;2023-04-03T14:55:16;29.65;;;3.65;;
65368;SDS011;51970;53.484;49.488;2023-04-03T14:58:20;17.98;;;3.13;;
65368;SDS011;51970;53.484;49.488;2023-04-03T15:00:56;34.55;;;5.13;;
65368;SDS011;51970;53.484;49.488;2023-04-03T15:04:16;22.73;;;3.53;;
65368;SDS011;51970;53.484;49.488;2023-04-03T15:06:46;18.10;;;3.47;;
65368;SDS011;51970;53.484;49.488;2023-04-03T15:09:21;23.52;;;3.92;;
65368;SDS011;51970;53.484;49.488;2023-04-03T15:12:42;25.58;;;6.55;;
65368;SDS011;51970;53.484;49.488;2023-04-03T15:15:32;35.47;;;3.90;;
65368;SDS011;51970;53.484;49.488;2023-04-03T15:18:04;25.92;;;5.68;;
65368;SDS011;51970;53.484;49.488;2023-04-03T15:21:25;33.25;;;6.60;;
65368;SDS011;51970;53.484;49.488;2023-04-03T15:24:21;27.77;;;4.00;;
65368;SDS011;51970;53.484;49.488;2023-04-03T15:27:15;35.13;;;5.78;;
65368;SDS011;51970;53.484;49.488;2023-04-03T15:29:43;32.42;;;6.30;;
65368;SDS011;51970;53.484;49.488;2023-04-03T15:32:12;24.55;;;5.55;;
65368;SDS011;51970;53.484;49.488;2023-04-03T15:35:37;26.45;;;4.65;;
65368;SDS011;51970;53.484;49.488;2023-04-03T15:38:20;40.35;;;8.05;;
65368;SDS011;51970;53.484;49.488;2023-04-03T15:40:51;27.42;;;5.10;;
65368;SDS011;51970;53.484;49.488;2023-04-03T15:43:49;30.45;;;5.53;;
65368;SDS011;51970;53.484;49.488;2023-04-03T15:46:22;29.42;;;8.38;;
65368;SDS011;51970;53.484;49.488;2023-04-03T15:48:50;18.77;;;5.43;;
65368;SDS011;51970;53.484;49.488;2023-04-03T15:51:54;24.52;;;7.30;;
65368;SDS011;51970;53.484;49.488;2023-04-03T15:54:28;32.47;;;8.43;;
65368;SDS011;51970;53.484;49.488;2023-04-03T15:57:09;37.53;;;7.93;;
65368;SDS011;51970;53.484;49.488;2023-04-03T15:59:57;24.92;;;5.53;;
65368;SDS011;51970;53.484;49.488;2023-04-03T16:02:59;37.05;;;8.30;;
65368;SDS011;51970;53.484;49.488;2023-04-03T16:05:33;22.55;;;8.18;;
65368;SDS011;51970;53.484;49.488;2023-04-03T16:10:55;31.85;;;9.32;;
65368;SDS011;51970;53.484;49.488;2023-04-03T16:13:56;32.88;;;5.72;;
65368;SDS011;51970;53.484;49.488;2023-04-03T16:16:36;39.08;;;8.77;;
65368;SDS011;51970;53.484;49.488;2023-04-03T16:19:03;28.75;;;7.53;;
65368;SDS011;51970;53.484;49.488;2023-04-03T16:21:54;27.48;;;7.20;;
65368;SDS011;51970;53.484;49.488;2023-04-03T16:25:36;40.95;;;7.13;;
65368;SDS011;51970;53.484;49.488;2023-04-03T16:30:56;29.20;;;5.07;;
65368;SDS011;51970;53.484;49.488;2023-04-03T16:37:08;31.55;;;8.48;;
65368;SDS011;51970;53.484;49.488;2023-04-03T16:39:37;30.65;;;7.53;;
65368;SDS011;51970;53.484;49.488;2023-04-03T16:42:12;29.42;;;5.47;;
65368;SDS011;51970;53.484;49.488;2023-04-03T16:45:25;26.13;;;7.50;;
65368;SDS011;51970;53.484;49.488;2023-04-03T16:48:47;16.92;;;6.35;;
65368;SDS011;51970;53.484;49.488;2023-04-03T16:51:28;29.20;;;6.15;;
65368;SDS011;51970;53.484;49.488;2023-04-03T16:54:26;23.40;;;6.55;;
65368;SDS011;51970;53.484;49.488;2023-04-03T16:57:22;31.67;;;8.50;;
65368;SDS011;51970;53.484;49.488;2023-04-03T17:00:18;41.60;;;8.38;;
65368;SDS011;51970;53.484;49.488;2023-04-03T17:06:30;37.67;;;9.40;;
65368;SDS011;51970;53.484;49.488;2023-04-03T17:09:14;78.13;;;11.45;;
65368;SDS011;51970;53.484;49.488;2023-04-03T17:12:24;73.65;;;11.32;;
65368;SDS011;51970;53.484;49.488;2023-04-03T17:14:59;48.50;;;12.25;;
65368;SDS011;51970;53.484;49.488;2023-04-03T17:17:35;63.45;;;13.68;;
65368;SDS011;51970;53.484;49.488;2023-04-03T17:20:07;69.80;;;15.43;;
65368;SDS011;51970;53.484;49.488;2023-04-03T17:22:37;49.63;;;7.90;;
65368;SDS011;51970;53.484;49.488;2023-04-03T17:25:05;64.80;;;8.68;;
65368;SDS011;51970;53.484;49.488;2023-04-03T17:27:40;69.35;;;12.63;;
65368;SDS011;51970;53.484;49.488;2023-04-03T17:30:29;60.97;;;9.80;;
65368;SDS011;51970;53.484;49.488;2023-04-03T17:32:58;58.92;;;11.35;;
65368;SDS011;51970;53.484;49.488;2023-04-03T17:35:46;63.75;;;12.30;;
65368;SDS011;51970;53.484;49.488;2023-04-03T17:38:14;74.53;;;10.52;;
65368;SDS011;51970;53.484;49.488;2023-04-03T17:40:54;82.78;;;12.07;;
65368;SDS011;51970;53.484;49.488;2023-04-03T17:43:40;73.40;;;11.68;;
65368;SDS011;51970;53.484;49.488;2023-04-03T17:46:12;52.05;;;11.68;;
65368;SDS011;51970;53.484;49.488;2023-04-03T17:48:43;77.38;;;13.00;;
65368;SDS011;51970;53.484;49.488;2023-04-03T17:51:13;87.35;;;10.55;;
65368;SDS011;51970;53.484;49.488;2023-04-03T17:53:45;69.32;;;11.82;;
65368;SDS011;51970;53.484;49.488;2023-04-03T17:56:18;65.32;;;11.55;;